Portada
METAR-TAF:

METAR-TAF

Aeroports :

Aeroport de Port Bouet

Abidjan, Costa d'Ivori

latitud: 05-15N, longitud: 003-56W, altitud: 7 m

Observació

L'informe es va fer fa 39 minuts, a les 17:30 UTC
Vent 8 kt del Sud/Sud-Oest
Temperatura 25°C
Humitat 89%
Pressió 1011 hPa
Visibilitat: 8000 m
Núvols disperses a una alçada de 1200 ft
Cel ennuvolat a una alçada de 3000 ft

METAR: DIAP 171730Z 21008KT 8000 SCT012 BKN030 25/23 Q1011 NOSIG

Hora: 18:09 (18:09 UTC)

Pronòstic

L'informe es va fer fa 1 hora i 9 minuts, a les 17:00 UTC
Pronòstic vàlid del 17 a les 18 UTC al 18 a les 24 UTC
Vent 8 kt del Sud/Sud-Oest
Visibilitat: 8000 m
Núvols disperses a una alçada de 1200 ft
Temporalment
l' 18 a les 04 UTC al 18 a les 10 UTC
Cel ennuvolat a una alçada de 1200 ft
Temporalment
l' 18 a les 18 UTC al 18 a les 24 UTC
Cel ennuvolat a una alçada de 1200 ft

TAF: DIAP 171700Z 1718/1824 21008KT 8000 SCT012 TEMPO 1804/1810 BKN012 TEMPO 1818/1824 BKN012

Observacions i pronòstics meteorològics de més de 4000 aeroports (METAR i TAF).

Les estacions disponibles són els punts grocs i vermells al mapa.

Posi el ratolí al punt desitjat per veure el nom de l'estació.

Feu clic per veure les observacions i els pronòstics meteorològics.

Per canviar el mapa: feu clic els botons verds amb una creu de color negre per apropar; al botó verd amb un guió per allunyar la imatge; o en les fletxes verdes per a mapes adjacents.


METAR-TAF: